createdAt,value
2018-01-18T00:00:37.099Z,984.7
2018-01-18T00:01:37.755Z,984.8
2018-01-18T00:02:38.410Z,984.7
2018-01-18T00:03:39.104Z,984.7
2018-01-18T00:04:39.760Z,984.8
2018-01-18T00:05:40.417Z,984.9
2018-01-18T00:06:41.073Z,984.8
2018-01-18T00:07:41.730Z,984.8
2018-01-18T00:08:42.387Z,984.9
2018-01-18T00:09:43.044Z,984.8
2018-01-18T00:10:43.700Z,984.8
2018-01-18T00:11:44.355Z,984.8
2018-01-18T00:12:45.013Z,984.9
2018-01-18T00:13:45.669Z,984.9
2018-01-18T00:14:46.327Z,984.8
2018-01-18T00:15:46.984Z,984.7
2018-01-18T00:16:47.641Z,984.8
2018-01-18T00:17:48.299Z,984.8
2018-01-18T00:18:48.956Z,984.7
2018-01-18T00:19:49.613Z,984.7
2018-01-18T00:20:50.282Z,984.6
2018-01-18T00:21:50.966Z,984.7
2018-01-18T00:22:51.627Z,984.7
2018-01-18T00:23:52.318Z,984.7
2018-01-18T00:24:52.975Z,984.6
2018-01-18T00:25:53.635Z,984.7
2018-01-18T00:26:54.291Z,984.7
2018-01-18T00:27:54.951Z,984.7
2018-01-18T00:28:55.609Z,984.6
2018-01-18T00:29:56.267Z,984.7
2018-01-18T00:30:56.925Z,984.7
2018-01-18T00:31:57.582Z,984.7
2018-01-18T00:32:58.241Z,984.7
2018-01-18T00:33:58.900Z,984.8
2018-01-18T00:34:59.559Z,984.8
2018-01-18T00:36:00.219Z,984.7
2018-01-18T00:37:00.874Z,984.8
2018-01-18T00:38:01.533Z,984.9
2018-01-18T00:39:02.189Z,984.8
2018-01-18T00:40:02.846Z,984.7
2018-01-18T00:41:03.504Z,984.7
2018-01-18T00:42:04.161Z,984.8
2018-01-18T00:43:04.819Z,984.8
2018-01-18T00:44:05.476Z,984.9
2018-01-18T00:45:06.134Z,984.9
2018-01-18T00:46:06.790Z,984.9
2018-01-18T00:47:07.448Z,984.9
2018-01-18T00:48:08.106Z,984.8
2018-01-18T00:49:08.764Z,984.9
2018-01-18T00:50:09.460Z,984.8
2018-01-18T00:51:10.114Z,984.8
2018-01-18T00:52:10.773Z,984.8
2018-01-18T00:53:11.431Z,984.8
2018-01-18T00:54:12.089Z,984.8
2018-01-18T00:55:12.748Z,984.8
2018-01-18T00:56:13.406Z,984.7
2018-01-18T00:57:14.063Z,984.8
2018-01-18T00:58:14.721Z,984.8
2018-01-18T00:59:15.379Z,984.8
2018-01-18T01:00:16.036Z,984.7
2018-01-18T01:01:16.695Z,984.7
2018-01-18T01:02:17.388Z,984.7
2018-01-18T01:03:18.046Z,984.7
2018-01-18T01:04:18.704Z,984.7
2018-01-18T01:05:19.362Z,984.7
2018-01-18T01:06:20.021Z,984.8
2018-01-18T01:07:20.679Z,984.7
2018-01-18T01:08:21.340Z,984.7
2018-01-18T01:09:21.995Z,984.7
2018-01-18T01:10:22.651Z,984.7
2018-01-18T01:11:23.311Z,984.7
2018-01-18T01:12:23.968Z,984.7
2018-01-18T01:13:24.625Z,984.7
2018-01-18T01:14:25.282Z,984.7
2018-01-18T01:15:25.938Z,984.7
2018-01-18T01:16:26.596Z,984.7
2018-01-18T01:17:27.255Z,984.7
2018-01-18T01:18:27.912Z,984.8
2018-01-18T01:19:28.570Z,984.8
2018-01-18T01:20:29.227Z,984.8
2018-01-18T01:21:29.884Z,984.9
2018-01-18T01:22:30.545Z,984.8
2018-01-18T01:23:31.199Z,984.8
2018-01-18T01:24:31.857Z,984.9
2018-01-18T01:25:32.549Z,984.8
2018-01-18T01:26:33.205Z,984.9
2018-01-18T01:27:33.863Z,984.8
2018-01-18T01:28:34.525Z,984.8
2018-01-18T01:29:35.215Z,984.8
2018-01-18T01:30:35.870Z,984.8
2018-01-18T01:31:36.527Z,984.8
2018-01-18T01:32:37.183Z,984.8
2018-01-18T01:33:37.838Z,984.8
2018-01-18T01:34:38.495Z,984.8
2018-01-18T01:35:39.150Z,984.7
2018-01-18T01:36:39.843Z,984.7
2018-01-18T01:37:40.501Z,984.7
2018-01-18T01:38:41.159Z,984.7
2018-01-18T01:39:41.816Z,984.7
2018-01-18T01:40:42.473Z,984.8
2018-01-18T01:41:43.130Z,984.7
2018-01-18T01:42:43.787Z,984.7
2018-01-18T01:43:44.448Z,984.8
2018-01-18T01:44:45.103Z,984.9
2018-01-18T01:45:45.760Z,984.9
2018-01-18T01:46:46.416Z,984.9
2018-01-18T01:47:47.073Z,984.9
2018-01-18T01:48:47.729Z,984.8
2018-01-18T01:49:48.387Z,984.8
2018-01-18T01:50:49.043Z,984.7
2018-01-18T01:51:49.699Z,984.8
2018-01-18T01:52:50.355Z,984.7
2018-01-18T01:53:51.049Z,984.7
2018-01-18T01:54:51.708Z,984.7
2018-01-18T01:55:52.367Z,984.7
2018-01-18T01:56:53.026Z,984.7
2018-01-18T01:57:53.686Z,984.7
2018-01-18T01:58:54.376Z,984.7
2018-01-18T01:59:55.035Z,984.7
2018-01-18T02:00:55.691Z,984.7
2018-01-18T02:01:56.349Z,984.7
2018-01-18T02:02:57.008Z,984.7
2018-01-18T02:03:57.667Z,984.6
2018-01-18T02:04:58.325Z,984.6
2018-01-18T02:05:58.984Z,984.5
2018-01-18T02:06:59.643Z,984.5
2018-01-18T02:08:00.301Z,984.5
2018-01-18T02:09:00.960Z,984.5
2018-01-18T02:10:01.653Z,984.6
2018-01-18T02:11:02.313Z,984.5
2018-01-18T02:12:03.007Z,984.5
2018-01-18T02:13:03.664Z,984.5
2018-01-18T02:14:04.357Z,984.5
2018-01-18T02:15:05.013Z,984.4
2018-01-18T02:16:05.670Z,984.3
2018-01-18T02:17:06.328Z,984.3
2018-01-18T02:18:06.985Z,984.2
2018-01-18T02:19:07.643Z,984.2
2018-01-18T02:20:08.302Z,984.2
2018-01-18T02:21:08.958Z,984.2
2018-01-18T02:22:09.668Z,984.1
2018-01-18T02:23:10.273Z,984.2
2018-01-18T02:24:10.932Z,984.2
2018-01-18T02:25:11.589Z,984.1
2018-01-18T02:26:12.245Z,984.1
2018-01-18T02:27:12.903Z,984.0
2018-01-18T02:28:13.561Z,984.0
2018-01-18T02:29:14.219Z,984.0
2018-01-18T02:30:14.877Z,983.9
2018-01-18T02:31:15.533Z,983.9
2018-01-18T02:32:16.191Z,983.9
2018-01-18T02:33:16.850Z,983.9
2018-01-18T02:34:17.507Z,983.9
2018-01-18T02:35:18.164Z,983.9
2018-01-18T02:36:18.821Z,983.9
2018-01-18T02:37:19.486Z,983.9
2018-01-18T02:38:20.137Z,983.9
2018-01-18T02:39:20.793Z,983.8
2018-01-18T02:40:21.452Z,983.8
2018-01-18T02:41:22.109Z,983.7
2018-01-18T02:42:22.767Z,983.8
2018-01-18T02:43:23.425Z,983.8
2018-01-18T02:44:24.082Z,983.8
2018-01-18T02:45:24.739Z,983.7
2018-01-18T02:46:25.399Z,983.7
2018-01-18T02:47:26.054Z,983.6
2018-01-18T02:48:26.710Z,983.6
2018-01-18T02:49:27.366Z,983.6
2018-01-18T02:50:28.022Z,983.6
2018-01-18T02:51:28.679Z,983.5
2018-01-18T02:52:29.335Z,983.5
2018-01-18T02:53:29.992Z,983.5
2018-01-18T02:54:30.650Z,983.5
2018-01-18T02:55:31.307Z,983.5
2018-01-18T02:56:31.966Z,983.6
2018-01-18T02:57:32.624Z,983.6
2018-01-18T02:58:33.280Z,983.6
2018-01-18T02:59:33.938Z,983.7
2018-01-18T03:00:34.596Z,983.6
2018-01-18T03:01:35.254Z,983.6
2018-01-18T03:02:35.913Z,983.6
2018-01-18T03:03:36.570Z,983.6
2018-01-18T03:04:37.228Z,983.6
2018-01-18T03:05:37.886Z,983.6
2018-01-18T03:06:38.544Z,983.6
2018-01-18T03:07:39.201Z,983.6
2018-01-18T03:08:39.858Z,983.5
2018-01-18T03:09:40.520Z,983.5
2018-01-18T03:10:41.176Z,983.5
2018-01-18T03:11:41.833Z,983.4
2018-01-18T03:12:42.492Z,983.4
2018-01-18T03:13:43.149Z,983.4
2018-01-18T03:14:43.809Z,983.4
2018-01-18T03:15:44.465Z,983.4
2018-01-18T03:16:45.122Z,983.4
2018-01-18T03:17:45.780Z,983.4
2018-01-18T03:18:46.438Z,983.4
2018-01-18T03:19:47.097Z,983.4
2018-01-18T03:20:47.754Z,983.4
2018-01-18T03:21:48.416Z,983.4
2018-01-18T03:22:49.107Z,983.4
2018-01-18T03:23:49.765Z,983.4
2018-01-18T03:24:50.427Z,983.3
2018-01-18T03:25:51.082Z,983.2
2018-01-18T03:26:51.740Z,983.2
2018-01-18T03:27:52.399Z,983.2
2018-01-18T03:28:53.058Z,983.2
2018-01-18T03:29:53.718Z,983.1
2018-01-18T03:30:54.377Z,983.1
2018-01-18T03:31:55.035Z,983.1
2018-01-18T03:32:55.694Z,983.1
2018-01-18T03:33:56.351Z,983.0
2018-01-18T03:34:57.008Z,983.0
2018-01-18T03:35:57.669Z,983.0
2018-01-18T03:36:58.325Z,983.0
2018-01-18T03:37:58.982Z,983.0
2018-01-18T03:38:59.678Z,982.9
2018-01-18T03:40:00.371Z,982.9
2018-01-18T03:41:01.028Z,982.8
2018-01-18T03:42:01.684Z,982.8
2018-01-18T03:43:02.341Z,982.8
2018-01-18T03:44:02.998Z,982.8
2018-01-18T03:45:03.655Z,982.8
2018-01-18T03:46:04.310Z,982.7
2018-01-18T03:47:04.966Z,982.6
2018-01-18T03:48:05.624Z,982.6
2018-01-18T03:49:06.282Z,982.6
2018-01-18T03:50:06.940Z,982.5
2018-01-18T03:51:07.597Z,982.5
2018-01-18T03:52:08.256Z,982.5
2018-01-18T03:53:08.913Z,982.5
2018-01-18T03:54:09.571Z,982.4
2018-01-18T03:55:10.228Z,982.4
2018-01-18T03:56:10.886Z,982.4
2018-01-18T03:57:11.544Z,982.4
2018-01-18T03:58:12.204Z,982.3
2018-01-18T03:59:12.860Z,982.3
2018-01-18T04:00:13.519Z,982.2
2018-01-18T04:01:14.177Z,982.2
2018-01-18T04:02:14.835Z,982.2
2018-01-18T04:03:15.492Z,982.2
2018-01-18T04:04:16.150Z,982.2
2018-01-18T04:05:16.808Z,982.1
2018-01-18T04:06:17.466Z,982.0
2018-01-18T04:07:18.124Z,982.1
2018-01-18T04:08:18.781Z,982.0
2018-01-18T04:09:19.440Z,982.1
2018-01-18T04:10:20.097Z,982.0
2018-01-18T04:11:20.754Z,982.1
2018-01-18T04:12:21.412Z,982.0
2018-01-18T04:13:22.071Z,982.0
2018-01-18T04:14:22.729Z,982.0
2018-01-18T04:15:23.387Z,981.9
2018-01-18T04:16:24.045Z,981.9
2018-01-18T04:17:24.702Z,981.9
2018-01-18T04:18:25.358Z,981.9
2018-01-18T04:19:26.016Z,981.8
2018-01-18T04:20:26.676Z,981.9
2018-01-18T04:21:27.332Z,981.8
2018-01-18T04:22:27.990Z,981.8
2018-01-18T04:23:28.649Z,981.8
2018-01-18T04:24:29.342Z,981.7
2018-01-18T04:25:29.999Z,981.7
2018-01-18T04:26:30.657Z,981.7
2018-01-18T04:27:31.339Z,981.7
2018-01-18T04:28:31.973Z,981.7
2018-01-18T04:29:32.629Z,981.7
2018-01-18T04:30:33.288Z,981.7
2018-01-18T04:31:33.947Z,981.7
2018-01-18T04:32:34.605Z,981.7
2018-01-18T04:33:35.263Z,981.7
2018-01-18T04:34:35.920Z,981.6
2018-01-18T04:35:36.615Z,981.7
2018-01-18T04:36:37.274Z,981.6
2018-01-18T04:37:37.934Z,981.6
2018-01-18T04:38:38.593Z,981.6
2018-01-18T04:39:39.250Z,981.6
2018-01-18T04:40:39.908Z,981.5
2018-01-18T04:41:40.568Z,981.5
2018-01-18T04:42:41.227Z,981.5
2018-01-18T04:43:41.887Z,981.5
2018-01-18T04:44:42.544Z,981.5
2018-01-18T04:45:43.203Z,981.5
2018-01-18T04:46:43.860Z,981.5
2018-01-18T04:47:44.520Z,981.5
2018-01-18T04:48:45.178Z,981.4
2018-01-18T04:49:45.837Z,981.4
2018-01-18T04:50:46.495Z,981.3
2018-01-18T04:51:47.154Z,981.3
2018-01-18T04:52:47.812Z,981.3
2018-01-18T04:53:48.475Z,981.4
2018-01-18T04:54:49.128Z,981.3
2018-01-18T04:55:49.786Z,981.3
2018-01-18T04:56:50.445Z,981.2
2018-01-18T04:57:51.140Z,981.2
2018-01-18T04:58:51.798Z,981.1
2018-01-18T04:59:52.457Z,981.1
2018-01-18T05:00:53.118Z,981.1
2018-01-18T05:01:53.776Z,981.0
2018-01-18T05:02:54.686Z,981.0
2018-01-18T05:03:55.346Z,981.0
2018-01-18T05:04:56.005Z,980.9
2018-01-18T05:05:56.668Z,980.9
2018-01-18T05:06:57.323Z,980.9
2018-01-18T05:07:57.981Z,980.9
2018-01-18T05:08:58.641Z,980.8
2018-01-18T05:09:59.298Z,980.9
2018-01-18T05:10:59.960Z,980.8
2018-01-18T05:12:00.618Z,980.8
2018-01-18T05:13:01.276Z,980.8
2018-01-18T05:14:01.934Z,980.8
2018-01-18T05:15:02.594Z,980.7
2018-01-18T05:16:03.287Z,980.7
2018-01-18T05:17:03.946Z,980.7
2018-01-18T05:18:04.606Z,980.7
2018-01-18T05:19:05.265Z,980.7
2018-01-18T05:20:05.924Z,980.6
2018-01-18T05:21:06.582Z,980.6
2018-01-18T05:22:07.240Z,980.5
2018-01-18T05:23:07.898Z,980.4
2018-01-18T05:24:08.556Z,980.5
2018-01-18T05:25:09.215Z,980.3
2018-01-18T05:26:09.874Z,980.3
2018-01-18T05:27:10.532Z,980.1
2018-01-18T05:28:11.228Z,980.2
2018-01-18T05:29:11.888Z,980.0
2018-01-18T05:30:12.546Z,980.0
2018-01-18T05:31:13.204Z,980.0
2018-01-18T05:32:13.862Z,979.9
2018-01-18T05:33:14.521Z,979.8
2018-01-18T05:34:15.180Z,979.8
2018-01-18T05:35:15.838Z,979.7
2018-01-18T05:36:16.533Z,979.6
2018-01-18T05:37:17.191Z,979.6
2018-01-18T05:38:17.851Z,979.6
2018-01-18T05:39:18.510Z,979.6
2018-01-18T05:40:19.169Z,979.6
2018-01-18T05:41:19.829Z,979.5
2018-01-18T05:42:20.488Z,979.5
2018-01-18T05:43:21.170Z,979.4
2018-01-18T05:44:21.805Z,979.4
2018-01-18T05:45:22.464Z,979.3
2018-01-18T05:46:23.122Z,979.3
2018-01-18T05:47:23.778Z,979.3
2018-01-18T05:48:24.437Z,979.2
2018-01-18T05:49:25.096Z,979.2
2018-01-18T05:50:25.754Z,979.1
2018-01-18T05:51:26.412Z,979.0
2018-01-18T05:52:27.071Z,978.9
2018-01-18T05:53:27.731Z,978.9
2018-01-18T05:54:28.509Z,978.8
2018-01-18T05:55:29.135Z,978.8
2018-01-18T05:56:29.791Z,978.8
2018-01-18T05:57:30.448Z,978.7
2018-01-18T05:58:31.105Z,978.8
2018-01-18T05:59:31.764Z,978.8
2018-01-18T06:00:32.421Z,978.7
2018-01-18T06:01:33.079Z,978.7
2018-01-18T06:02:33.737Z,978.6
2018-01-18T06:03:34.397Z,978.6
2018-01-18T06:04:35.053Z,978.5
2018-01-18T06:05:35.712Z,978.5
2018-01-18T06:06:36.370Z,978.4
2018-01-18T06:07:37.030Z,978.3
2018-01-18T06:08:37.687Z,978.3
2018-01-18T06:09:38.345Z,978.3
2018-01-18T06:10:39.016Z,978.3
2018-01-18T06:11:39.671Z,978.2
2018-01-18T06:12:40.327Z,978.1
2018-01-18T06:13:41.022Z,978.1
2018-01-18T06:14:41.677Z,978.1
2018-01-18T06:15:42.335Z,978.1
2018-01-18T06:16:42.991Z,978.0
2018-01-18T06:17:43.649Z,978.0
2018-01-18T06:18:44.307Z,978.0
2018-01-18T06:19:44.965Z,978.0
2018-01-18T06:20:45.623Z,978.0
2018-01-18T06:21:46.281Z,977.9
2018-01-18T06:22:46.937Z,977.9
2018-01-18T06:23:47.597Z,977.9
2018-01-18T06:24:48.256Z,977.8
2018-01-18T06:25:48.913Z,977.7
2018-01-18T06:26:49.571Z,977.7
2018-01-18T06:27:50.228Z,977.7
2018-01-18T06:28:50.886Z,977.6
2018-01-18T06:29:51.544Z,977.6
2018-01-18T06:30:52.203Z,977.6
2018-01-18T06:31:52.861Z,977.5
2018-01-18T06:32:53.518Z,977.5
2018-01-18T06:33:54.176Z,977.5
2018-01-18T06:34:54.835Z,977.4
2018-01-18T06:35:55.493Z,977.4
2018-01-18T06:36:56.150Z,977.3
2018-01-18T06:37:56.808Z,977.2
2018-01-18T06:38:57.502Z,977.2
2018-01-18T06:39:58.160Z,977.2
2018-01-18T06:40:58.819Z,977.2
2018-01-18T06:41:59.478Z,977.0
2018-01-18T06:43:00.136Z,977.1
2018-01-18T06:44:00.794Z,977.0
2018-01-18T06:45:01.454Z,977.0
2018-01-18T06:46:02.112Z,976.9
2018-01-18T06:47:02.806Z,976.8
2018-01-18T06:48:03.465Z,976.7
2018-01-18T06:49:04.123Z,976.7
2018-01-18T06:50:04.782Z,976.6
2018-01-18T06:51:05.474Z,976.6
2018-01-18T06:52:06.131Z,976.6
2018-01-18T06:53:06.788Z,976.6
2018-01-18T06:54:07.445Z,976.6
2018-01-18T06:55:08.101Z,976.5
2018-01-18T06:56:08.759Z,976.5
2018-01-18T06:57:09.415Z,976.4
2018-01-18T06:58:10.072Z,976.4
2018-01-18T06:59:10.730Z,976.4
2018-01-18T07:00:11.388Z,976.4
2018-01-18T07:01:12.051Z,976.3
2018-01-18T07:02:12.707Z,976.3
2018-01-18T07:03:13.365Z,976.2
2018-01-18T07:04:14.023Z,976.1
2018-01-18T07:05:14.680Z,976.2
2018-01-18T07:06:15.338Z,976.0
2018-01-18T07:07:15.996Z,976.0
2018-01-18T07:08:16.655Z,975.9
2018-01-18T07:09:17.313Z,975.8
2018-01-18T07:10:17.972Z,975.8
2018-01-18T07:11:18.630Z,975.8
2018-01-18T07:12:19.287Z,975.7
2018-01-18T07:13:19.974Z,975.7
2018-01-18T07:14:20.651Z,975.7
2018-01-18T07:15:21.311Z,975.6
2018-01-18T07:16:22.002Z,975.7
2018-01-18T07:17:22.658Z,975.6
2018-01-18T07:18:23.321Z,975.6
2018-01-18T07:19:23.974Z,975.6
2018-01-18T07:20:24.632Z,975.6
2018-01-18T07:21:25.291Z,975.5
2018-01-18T07:22:25.948Z,975.6
2018-01-18T07:23:26.605Z,975.5
2018-01-18T07:24:27.264Z,975.4
2018-01-18T07:25:27.957Z,975.4
2018-01-18T07:26:28.615Z,975.3
2018-01-18T07:27:29.274Z,975.2
2018-01-18T07:28:29.934Z,975.2
2018-01-18T07:29:30.594Z,975.2
2018-01-18T07:30:31.253Z,975.1
2018-01-18T07:31:31.912Z,975.0
2018-01-18T07:32:32.570Z,975.0
2018-01-18T07:33:33.229Z,974.9
2018-01-18T07:34:33.888Z,974.8
2018-01-18T07:35:34.546Z,974.8
2018-01-18T07:36:35.205Z,974.7
2018-01-18T07:37:35.866Z,974.5
2018-01-18T07:38:36.526Z,974.4
2018-01-18T07:39:37.232Z,974.2
2018-01-18T07:40:37.896Z,974.1
2018-01-18T07:41:39.754Z,974.1
2018-01-18T07:42:42.787Z,974.1
2018-01-18T07:43:43.805Z,974.0
2018-01-18T07:44:44.465Z,974.0
2018-01-18T07:45:45.126Z,973.9
2018-01-18T07:46:45.829Z,973.9
2018-01-18T07:47:46.448Z,973.8
2018-01-18T07:48:47.106Z,973.7
2018-01-18T07:49:47.764Z,973.7
2018-01-18T07:50:48.424Z,973.7
2018-01-18T07:51:49.084Z,973.7
2018-01-18T07:52:49.763Z,973.6
2018-01-18T07:53:50.403Z,973.6
2018-01-18T07:54:51.064Z,973.6
2018-01-18T07:55:51.759Z,973.5
2018-01-18T07:56:52.419Z,973.5
2018-01-18T07:57:53.078Z,973.3
2018-01-18T07:58:53.738Z,973.5
2018-01-18T07:59:54.400Z,973.4
2018-01-18T08:00:55.066Z,973.2
2018-01-18T08:01:55.726Z,973.0
2018-01-18T08:02:56.388Z,973.0
2018-01-18T08:03:57.049Z,972.8
2018-01-18T08:04:57.711Z,973.0
2018-01-18T08:05:58.375Z,972.9
2018-01-18T08:06:59.036Z,972.9
2018-01-18T08:07:59.696Z,972.7
2018-01-18T08:09:00.357Z,972.8
2018-01-18T08:10:01.017Z,972.6
2018-01-18T08:11:01.679Z,972.4
2018-01-18T08:12:02.339Z,972.7
2018-01-18T08:13:03.002Z,972.3
2018-01-18T08:14:03.666Z,972.5
2018-01-18T08:15:04.327Z,972.4
2018-01-18T08:16:04.988Z,972.5
2018-01-18T08:17:05.650Z,972.3
2018-01-18T08:18:06.313Z,972.5
2018-01-18T08:19:06.981Z,972.2
2018-01-18T08:20:07.672Z,972.3
2018-01-18T08:21:08.336Z,972.4
2018-01-18T08:22:08.996Z,972.3
2018-01-18T08:23:09.659Z,972.2
2018-01-18T08:24:10.318Z,972.4
2018-01-18T08:25:10.982Z,972.7
2018-01-18T08:26:11.677Z,972.3
2018-01-18T08:27:12.337Z,972.4
2018-01-18T08:28:12.998Z,972.6
2018-01-18T08:29:13.664Z,972.5
2018-01-18T08:30:14.361Z,972.6
2018-01-18T08:31:15.024Z,972.7
2018-01-18T08:32:15.685Z,972.6
2018-01-18T08:33:16.365Z,972.6
2018-01-18T08:34:17.007Z,972.6
2018-01-18T08:35:17.703Z,972.6
2018-01-18T08:36:18.365Z,972.4
2018-01-18T08:37:19.025Z,972.3
2018-01-18T08:38:19.687Z,972.4
2018-01-18T08:39:20.350Z,972.3
2018-01-18T08:40:21.013Z,972.0
2018-01-18T08:41:21.674Z,972.1
2018-01-18T08:42:22.334Z,972.4
2018-01-18T08:43:22.996Z,972.0
2018-01-18T08:44:23.657Z,971.9
2018-01-18T08:45:24.321Z,972.0
2018-01-18T08:46:24.984Z,972.0
2018-01-18T08:47:25.648Z,972.0
2018-01-18T08:48:26.311Z,972.0
2018-01-18T08:49:26.973Z,972.0
2018-01-18T08:50:27.637Z,971.9
2018-01-18T08:51:28.300Z,971.7
2018-01-18T08:52:28.962Z,971.8
2018-01-18T08:53:29.623Z,971.8
2018-01-18T08:54:30.285Z,971.7
2018-01-18T08:55:30.949Z,971.7
2018-01-18T08:56:31.610Z,971.7
2018-01-18T08:57:32.273Z,971.5
2018-01-18T08:58:32.967Z,971.8
2018-01-18T08:59:33.604Z,971.8
2018-01-18T09:00:34.266Z,971.7
2018-01-18T09:01:34.927Z,971.8
2018-01-18T09:02:35.590Z,971.8
2018-01-18T09:03:36.250Z,971.7
2018-01-18T09:04:36.913Z,971.6
2018-01-18T09:05:37.576Z,971.7
2018-01-18T09:06:38.237Z,971.7
2018-01-18T09:07:38.898Z,971.6
2018-01-18T09:08:39.562Z,971.6
2018-01-18T09:09:40.230Z,971.8
2018-01-18T09:10:40.887Z,971.5
2018-01-18T09:11:41.549Z,971.5
2018-01-18T09:12:42.210Z,971.1
2018-01-18T09:13:42.870Z,971.6
2018-01-18T09:14:43.534Z,971.7
2018-01-18T09:15:44.195Z,971.5
2018-01-18T09:16:44.860Z,971.6
2018-01-18T09:17:45.536Z,971.6
2018-01-18T09:18:46.202Z,971.4
2018-01-18T09:19:46.905Z,971.4
2018-01-18T09:20:47.569Z,971.4
2018-01-18T09:21:48.227Z,971.3
2018-01-18T09:22:48.888Z,971.4
2018-01-18T09:23:49.551Z,971.2
2018-01-18T09:24:50.214Z,971.2
2018-01-18T09:25:50.878Z,971.0
2018-01-18T09:26:51.539Z,971.1
2018-01-18T09:27:52.200Z,971.1
2018-01-18T09:28:52.863Z,971.1
2018-01-18T09:29:53.529Z,971.1
2018-01-18T09:30:54.188Z,971.3
2018-01-18T09:31:54.854Z,971.1
2018-01-18T09:32:55.516Z,971.0
2018-01-18T09:33:56.178Z,971.0
2018-01-18T09:34:56.841Z,970.8
2018-01-18T09:35:57.503Z,970.8
2018-01-18T09:36:58.167Z,970.6
2018-01-18T09:37:58.829Z,970.6
2018-01-18T09:38:59.494Z,970.6
2018-01-18T09:40:00.153Z,970.6
2018-01-18T09:41:00.815Z,970.6
2018-01-18T09:42:01.476Z,970.6
2018-01-18T09:43:02.140Z,970.6
2018-01-18T09:44:02.804Z,970.5
2018-01-18T09:45:03.469Z,970.5
2018-01-18T09:46:04.181Z,970.3
2018-01-18T09:47:04.881Z,970.3
2018-01-18T09:48:05.547Z,970.2
2018-01-18T09:49:06.210Z,970.3
2018-01-18T09:50:06.876Z,970.2
2018-01-18T09:51:07.535Z,970.3
2018-01-18T09:52:08.198Z,970.3
2018-01-18T09:53:08.860Z,970.1
2018-01-18T09:54:09.524Z,970.2
2018-01-18T09:55:10.190Z,970.2
2018-01-18T09:56:10.853Z,970.1
2018-01-18T09:57:11.516Z,969.9
2018-01-18T09:58:12.183Z,969.8
2018-01-18T09:59:12.878Z,969.9
2018-01-18T10:00:13.541Z,969.9
2018-01-18T10:01:14.505Z,969.6
2018-01-18T10:02:15.168Z,969.7
2018-01-18T10:03:15.831Z,969.7
2018-01-18T10:04:16.494Z,969.7
2018-01-18T10:05:17.157Z,969.6
2018-01-18T10:06:17.821Z,969.6
2018-01-18T10:08:19.152Z,969.4
2018-01-18T10:09:19.814Z,969.4
2018-01-18T10:10:20.513Z,969.3
2018-01-18T10:11:21.177Z,969.3
2018-01-18T10:12:21.839Z,969.5
2018-01-18T10:13:22.507Z,969.6
2018-01-18T10:14:23.201Z,969.4
2018-01-18T10:15:23.864Z,969.5
2018-01-18T10:16:24.528Z,969.4
2018-01-18T10:17:25.192Z,969.4
2018-01-18T10:18:25.855Z,969.6
2018-01-18T10:19:26.519Z,969.7
2018-01-18T10:20:27.181Z,969.8
2018-01-18T10:21:27.845Z,969.5
2018-01-18T10:22:28.510Z,969.7
2018-01-18T10:23:29.176Z,969.6
2018-01-18T10:24:29.842Z,969.5
2018-01-18T10:25:30.507Z,969.6
2018-01-18T10:26:31.173Z,969.9
2018-01-18T10:27:31.833Z,969.4
2018-01-18T10:28:32.496Z,969.3
2018-01-18T10:29:33.159Z,969.2
2018-01-18T10:30:33.823Z,969.2
2018-01-18T10:31:34.488Z,969.2
2018-01-18T10:32:35.151Z,969.1
2018-01-18T10:33:35.816Z,969.4
2018-01-18T10:34:36.488Z,968.9
2018-01-18T10:35:37.182Z,968.9
2018-01-18T10:36:37.848Z,969.0
2018-01-18T10:37:38.508Z,969.0
2018-01-18T10:38:39.170Z,969.0
2018-01-18T10:39:39.834Z,969.0
2018-01-18T10:40:40.500Z,968.8
2018-01-18T10:41:41.164Z,968.8
2018-01-18T10:42:41.828Z,968.9
2018-01-18T10:43:42.493Z,969.1
2018-01-18T10:44:43.156Z,968.9
2018-01-18T10:45:43.822Z,968.9
2018-01-18T10:46:44.519Z,968.9
2018-01-18T10:47:45.158Z,968.8
2018-01-18T10:48:45.816Z,968.9
2018-01-18T10:49:46.491Z,968.8
2018-01-18T10:50:47.146Z,968.7
2018-01-18T10:51:47.808Z,968.7
2018-01-18T10:52:48.471Z,968.7
2018-01-18T10:53:49.134Z,968.6
2018-01-18T10:54:49.797Z,968.6
2018-01-18T10:55:50.462Z,968.3
2018-01-18T10:56:51.125Z,968.4
2018-01-18T10:57:51.793Z,968.3
2018-01-18T10:58:52.457Z,968.2
2018-01-18T10:59:53.124Z,968.2
2018-01-18T11:00:53.790Z,968.1
2018-01-18T11:01:54.453Z,968.1
2018-01-18T11:02:55.119Z,967.8
2018-01-18T11:03:55.784Z,967.9
2018-01-18T11:04:56.448Z,967.8
2018-01-18T11:05:57.148Z,967.9
2018-01-18T11:06:57.813Z,967.8
2018-01-18T11:07:58.477Z,967.8
2018-01-18T11:08:59.144Z,967.8
2018-01-18T11:09:59.811Z,968.1
2018-01-18T11:11:00.477Z,967.9
2018-01-18T11:12:01.144Z,967.7
2018-01-18T11:13:01.810Z,967.6
2018-01-18T11:14:02.476Z,967.7
2018-01-18T11:15:03.141Z,967.5
2018-01-18T11:16:03.806Z,967.6
2018-01-18T11:17:04.474Z,967.5
2018-01-18T11:18:05.142Z,967.5
2018-01-18T11:19:05.806Z,967.4
2018-01-18T11:20:06.471Z,967.3
2018-01-18T11:21:07.136Z,967.2
2018-01-18T11:22:07.852Z,967.2
2018-01-18T11:23:08.518Z,967.1
2018-01-18T11:24:09.186Z,967.4
2018-01-18T11:25:09.850Z,967.3
2018-01-18T11:26:10.517Z,967.2
2018-01-18T11:27:11.182Z,967.2
2018-01-18T11:28:11.847Z,967.3
2018-01-18T11:29:12.513Z,967.1
2018-01-18T11:30:13.178Z,967.1
2018-01-18T11:31:13.843Z,967.0
2018-01-18T11:32:14.510Z,967.1
2018-01-18T11:33:15.176Z,967.1
2018-01-18T11:34:15.843Z,967.0
2018-01-18T11:35:16.509Z,967.1
2018-01-18T11:36:17.175Z,966.9
2018-01-18T11:37:17.841Z,966.9
2018-01-18T11:38:18.507Z,966.6
2018-01-18T11:39:19.178Z,966.7
2018-01-18T11:40:19.876Z,966.8
2018-01-18T11:41:20.540Z,966.7
2018-01-18T11:42:21.206Z,966.6
2018-01-18T11:43:21.869Z,966.6
2018-01-18T11:44:22.534Z,967.0
2018-01-18T11:45:23.199Z,966.7
2018-01-18T11:46:23.865Z,966.9
2018-01-18T11:47:24.532Z,966.8
2018-01-18T11:48:25.198Z,966.8
2018-01-18T11:49:25.864Z,966.8
2018-01-18T11:50:26.531Z,966.5
2018-01-18T11:51:27.197Z,966.4
2018-01-18T11:52:27.862Z,966.7
2018-01-18T11:53:28.528Z,966.4
2018-01-18T11:54:29.194Z,966.5
2018-01-18T11:55:29.863Z,966.7
2018-01-18T11:56:30.527Z,966.5
2018-01-18T11:57:31.193Z,966.6
2018-01-18T11:58:31.858Z,966.4
2018-01-18T11:59:32.561Z,966.5
2018-01-18T12:00:33.227Z,966.6
2018-01-18T12:01:33.893Z,966.6
2018-01-18T12:02:34.560Z,966.4
2018-01-18T12:03:35.224Z,966.4
2018-01-18T12:04:35.889Z,966.9
2018-01-18T12:05:36.557Z,966.4
2018-01-18T12:06:37.255Z,966.9
2018-01-18T12:07:37.919Z,966.7
2018-01-18T12:08:38.584Z,966.6
2018-01-18T12:09:39.250Z,966.7
2018-01-18T12:10:39.917Z,966.6
2018-01-18T12:11:40.585Z,966.7
2018-01-18T12:12:41.253Z,966.5
2018-01-18T12:13:41.921Z,966.6
2018-01-18T12:14:42.590Z,966.2
2018-01-18T12:15:43.254Z,966.6
2018-01-18T12:16:43.921Z,966.6
2018-01-18T12:17:44.591Z,966.1
2018-01-18T12:18:45.261Z,966.5
2018-01-18T12:19:45.923Z,966.9
2018-01-18T12:20:46.589Z,966.3
2018-01-18T12:21:47.257Z,966.5
2018-01-18T12:22:47.925Z,966.2
2018-01-18T12:23:48.593Z,966.3
2018-01-18T12:24:49.259Z,966.8
2018-01-18T12:25:49.924Z,966.0
2018-01-18T12:26:50.592Z,966.8
2018-01-18T12:27:51.260Z,966.5
2018-01-18T12:28:51.928Z,966.2
2018-01-18T12:29:52.595Z,966.4
2018-01-18T12:30:53.263Z,966.3
2018-01-18T12:31:53.933Z,966.4
2018-01-18T12:32:54.600Z,966.3
2018-01-18T12:33:55.269Z,966.6
2018-01-18T12:34:55.938Z,966.2
2018-01-18T12:35:56.607Z,966.4
2018-01-18T12:36:57.278Z,966.5
2018-01-18T12:37:57.943Z,967.2
2018-01-18T12:38:58.611Z,966.6
2018-01-18T12:39:59.283Z,966.7
2018-01-18T12:40:59.950Z,966.5
2018-01-18T12:42:00.619Z,966.4
2018-01-18T12:43:01.337Z,966.2
2018-01-18T12:44:02.005Z,966.6
2018-01-18T12:45:02.674Z,966.5
2018-01-18T12:46:03.344Z,967.0
2018-01-18T12:47:04.012Z,966.6
2018-01-18T12:48:04.680Z,966.6
2018-01-18T12:49:05.350Z,966.8
2018-01-18T12:50:06.017Z,967.1
2018-01-18T12:51:06.680Z,966.6
2018-01-18T12:52:07.348Z,966.6
2018-01-18T12:53:08.017Z,967.3
2018-01-18T12:54:08.686Z,966.7
2018-01-18T12:55:09.356Z,967.1
2018-01-18T12:56:10.018Z,966.8
2018-01-18T12:57:10.685Z,967.4
2018-01-18T12:58:11.355Z,967.0
2018-01-18T12:59:12.022Z,967.3
2018-01-18T13:00:12.689Z,967.3
2018-01-18T13:01:13.356Z,967.3
2018-01-18T13:02:14.027Z,967.2